Time;durP1;ratioP1;P1;durP2;ratioP2;P2;SDS_P1;SDS_P2;PMS_P1;PMS_P2;Temp;Humidity;BMP_temperature;BMP_pressure;BME280_temperature;BME280_humidity;BME280_pressure;Samples;Min_cycle;Max_cycle;Signal;HPM_P1;HPM_P2
2023/03/02 00:01:59;;;;;;;40.45;23.75;;;;;;;;;;6265886;28;20049;-69
2023/03/02 00:05:02;;;;;;;41.63;24.13;;;;;;;;;;6262891;28;20423;-69
2023/03/02 00:08:05;;;;;;;37.75;22.90;;;;;;;;;;6260933;28;20065;-69
2023/03/02 00:11:10;;;;;;;42.30;24.33;;;;;;;;;;6262684;28;20219;-69
2023/03/02 00:14:12;;;;;;;40.58;24.45;;;;;;;;;;6265047;28;20052;-69
2023/03/02 00:17:14;;;;;;;46.53;26.83;;;;;;;;;;6266528;28;20283;-69
2023/03/02 00:20:33;;;;;;;49.53;26.73;;;;;;;;;;6243261;28;20137;-70
2023/03/02 00:23:39;;;;;;;44.08;25.83;;;;;;;;;;6235118;28;20050;-69
2023/03/02 00:26:47;;;;;;;44.72;26.95;;;;;;;;;;6237807;28;20042;-69
2023/03/02 00:29:49;;;;;;;47.22;26.55;;;;;;;;;;6236023;28;20116;-69
2023/03/02 00:32:51;;;;;;;46.55;27.38;;;;;;;;;;6237108;28;20045;-70
2023/03/02 00:35:53;;;;;;;45.03;27.50;;;;;;;;;;6235347;28;20057;-69
2023/03/02 00:38:57;;;;;;;48.25;29.48;;;;;;;;;;6237504;28;20053;-69
2023/03/02 00:41:59;;;;;;;47.85;28.05;;;;;;;;;;6238566;28;20054;-70
2023/03/02 00:45:01;;;;;;;52.55;28.83;;;;;;;;;;6234645;28;20136;-69
2023/03/02 00:48:03;;;;;;;47.45;28.27;;;;;;;;;;6236720;28;20052;-70
2023/03/02 00:51:05;;;;;;;52.15;29.00;;;;;;;;;;6236659;28;20053;-69
2023/03/02 00:54:11;;;;;;;49.33;28.20;;;;;;;;;;6261525;28;20049;-70
2023/03/02 00:57:13;;;;;;;47.20;26.75;;;;;;;;;;6256499;28;20056;-69
2023/03/02 01:00:16;;;;;;;48.33;27.85;;;;;;;;;;6277076;28;20068;-69
2023/03/02 01:03:18;;;;;;;45.45;27.88;;;;;;;;;;6262662;28;20389;-69
2023/03/02 01:06:21;;;;;;;49.55;27.45;;;;;;;;;;6267695;28;20586;-69
2023/03/02 01:09:24;;;;;;;46.90;26.65;;;;;;;;;;6264043;28;20061;-69
2023/03/02 01:12:26;;;;;;;52.42;29.45;;;;;;;;;;6263376;28;20100;-69
2023/03/02 01:15:28;;;;;;;48.20;28.83;;;;;;;;;;6263733;28;20355;-69
2023/03/02 01:18:31;;;;;;;47.83;27.45;;;;;;;;;;6263334;28;20163;-69
2023/03/02 01:21:33;;;;;;;46.90;26.95;;;;;;;;;;6259326;28;20131;-68
2023/03/02 01:24:37;;;;;;;46.13;27.90;;;;;;;;;;6264465;28;20057;-69
2023/03/02 01:27:39;;;;;;;48.40;27.80;;;;;;;;;;6260497;28;20064;-70
2023/03/02 01:30:41;;;;;;;45.50;26.75;;;;;;;;;;6262572;28;20056;-70
2023/03/02 01:33:43;;;;;;;48.00;28.65;;;;;;;;;;6261732;28;20139;-69
2023/03/02 01:36:45;;;;;;;43.75;27.08;;;;;;;;;;6262207;28;20045;-70
2023/03/02 01:39:49;;;;;;;48.50;28.05;;;;;;;;;;6262037;28;20060;-70
2023/03/02 01:42:52;;;;;;;49.83;29.08;;;;;;;;;;6264766;28;20123;-69
2023/03/02 01:45:57;;;;;;;50.33;28.65;;;;;;;;;;6261576;28;20068;-68
2023/03/02 01:49:01;;;;;;;44.08;27.25;;;;;;;;;;6263215;28;20057;-70
2023/03/02 01:52:04;;;;;;;47.67;28.20;;;;;;;;;;6262172;28;20340;-70
2023/03/02 01:55:10;;;;;;;43.60;26.98;;;;;;;;;;6261225;28;20053;-69
2023/03/02 01:58:15;;;;;;;44.60;27.10;;;;;;;;;;6263003;28;20049;-69
2023/03/02 02:01:17;;;;;;;43.90;27.23;;;;;;;;;;6268048;28;20244;-70
2023/03/02 02:04:19;;;;;;;49.03;26.67;;;;;;;;;;6270920;28;20060;-69
2023/03/02 02:07:21;;;;;;;47.17;27.92;;;;;;;;;;6268592;28;20111;-70
2023/03/02 02:10:24;;;;;;;44.15;26.15;;;;;;;;;;6267591;28;20053;-68
2023/03/02 02:13:26;;;;;;;47.03;27.05;;;;;;;;;;6267034;28;20098;-69
2023/03/02 02:16:29;;;;;;;46.47;28.13;;;;;;;;;;6268661;28;20056;-67
2023/03/02 02:19:38;;;;;;;45.47;26.00;;;;;;;;;;6272440;28;20053;-69
2023/03/02 02:22:50;;;;;;;46.28;27.10;;;;;;;;;;6267515;28;20070;-69
2023/03/02 02:26:23;;;;;;;54.03;29.33;;;;;;;;;;6271694;28;20067;-70
2023/03/02 02:29:29;;;;;;;44.95;26.88;;;;;;;;;;6267182;28;20061;-70
2023/03/02 02:32:36;;;;;;;43.13;25.05;;;;;;;;;;6275114;28;20049;-70
2023/03/02 02:35:39;;;;;;;45.20;26.98;;;;;;;;;;6272322;28;20341;-70
2023/03/02 02:38:41;;;;;;;41.78;25.15;;;;;;;;;;6271160;28;20061;-69
2023/03/02 02:41:51;;;;;;;43.17;24.98;;;;;;;;;;6270734;28;20057;-69
2023/03/02 02:44:56;;;;;;;42.08;25.33;;;;;;;;;;6271356;28;20121;-69
2023/03/02 02:47:58;;;;;;;43.25;25.70;;;;;;;;;;6256912;28;20329;-69
2023/03/02 02:51:01;;;;;;;42.30;24.35;;;;;;;;;;6263630;28;20246;-70
2023/03/02 02:54:04;;;;;;;43.03;25.70;;;;;;;;;;6273030;28;20256;-70
2023/03/02 02:57:07;;;;;;;42.58;25.38;;;;;;;;;;6269936;28;20091;-69
2023/03/02 03:00:17;;;;;;;39.03;23.80;;;;;;;;;;6267593;28;20064;-70
2023/03/02 03:03:29;;;;;;;38.70;23.88;;;;;;;;;;6264850;28;20098;-70
2023/03/02 03:06:37;;;;;;;41.63;24.00;;;;;;;;;;6268509;28;20045;-69
2023/03/02 03:09:39;;;;;;;41.63;24.60;;;;;;;;;;6266381;28;20059;-69
2023/03/02 03:12:42;;;;;;;44.05;24.73;;;;;;;;;;6254047;28;20118;-70
2023/03/02 03:15:44;;;;;;;43.67;24.17;;;;;;;;;;6240530;28;20124;-69
2023/03/02 03:18:50;;;;;;;42.85;23.38;;;;;;;;;;6246065;28;20115;-70
2023/03/02 03:21:54;;;;;;;41.17;24.23;;;;;;;;;;6241724;28;20076;-68
2023/03/02 03:24:57;;;;;;;44.00;24.20;;;;;;;;;;6259040;28;20080;-70
2023/03/02 03:28:02;;;;;;;39.17;24.60;;;;;;;;;;6267593;28;20076;-69
2023/03/02 03:31:05;;;;;;;42.08;23.85;;;;;;;;;;6265941;28;20049;-69
2023/03/02 03:34:08;;;;;;;39.85;23.70;;;;;;;;;;6265387;28;20057;-70
2023/03/02 03:37:13;;;;;;;46.17;24.70;;;;;;;;;;6255481;28;20045;-68
2023/03/02 03:40:15;;;;;;;;;;;;;;;;;;6271153;28;20051;-70
2023/03/02 03:43:18;;;;;;;41.03;23.30;;;;;;;;;;6268456;28;19924;-69
2023/03/02 03:46:20;;;;;;;47.83;27.02;;;;;;;;;;6265509;28;20337;-70
2023/03/02 03:49:23;;;;;;;46.33;25.30;;;;;;;;;;6266745;28;20044;-68
2023/03/02 03:52:29;;;;;;;45.60;26.15;;;;;;;;;;6265678;28;20344;-70
2023/03/02 03:55:31;;;;;;;45.53;25.73;;;;;;;;;;6266244;28;20703;-70
2023/03/02 03:58:34;;;;;;;44.38;25.95;;;;;;;;;;6265885;28;20053;-69
2023/03/02 04:01:38;;;;;;;46.10;25.67;;;;;;;;;;6265281;28;20337;-69
2023/03/02 04:04:48;;;;;;;42.00;23.60;;;;;;;;;;6266398;28;20049;-69
2023/03/02 04:07:50;;;;;;;39.00;24.35;;;;;;;;;;6263562;28;20045;-69
2023/03/02 04:10:52;;;;;;;40.35;23.85;;;;;;;;;;6264418;28;20045;-69
2023/03/02 04:13:56;;;;;;;46.30;26.40;;;;;;;;;;6264351;28;20280;-70
2023/03/02 04:16:58;;;;;;;47.08;25.05;;;;;;;;;;6265001;28;20053;-69
2023/03/02 04:20:00;;;;;;;43.97;25.80;;;;;;;;;;6248715;28;20324;-70
2023/03/02 04:23:01;;;;;;;43.45;25.38;;;;;;;;;;6265079;28;20053;-69
2023/03/02 04:26:04;;;;;;;46.13;26.77;;;;;;;;;;6263358;28;20063;-70
2023/03/02 04:29:07;;;;;;;44.60;25.75;;;;;;;;;;6264894;28;20057;-69
2023/03/02 04:32:10;;;;;;;46.17;26.33;;;;;;;;;;6267361;28;20048;-69
2023/03/02 04:35:12;;;;;;;48.53;27.63;;;;;;;;;;6266435;28;20279;-69
2023/03/02 04:38:13;;;;;;;50.08;28.05;;;;;;;;;;6265998;28;20060;-69
2023/03/02 04:41:15;;;;;;;47.35;27.10;;;;;;;;;;6265250;28;20182;-69
2023/03/02 04:44:19;;;;;;;42.35;26.40;;;;;;;;;;6266949;28;20049;-70
2023/03/02 04:47:21;;;;;;;42.70;25.70;;;;;;;;;;6267100;28;20076;-69
2023/03/02 04:50:23;;;;;;;43.28;24.90;;;;;;;;;;6266208;28;20114;-69
2023/03/02 04:53:25;;;;;;;43.40;26.13;;;;;;;;;;6266103;28;20104;-70
2023/03/02 04:56:27;;;;;;;45.50;26.25;;;;;;;;;;6263238;28;20049;-71
2023/03/02 04:59:31;;;;;;;45.17;26.23;;;;;;;;;;6264741;28;20096;-69
2023/03/02 05:02:32;;;;;;;48.42;26.85;;;;;;;;;;6264115;28;20048;-71
2023/03/02 05:05:34;;;;;;;43.97;25.85;;;;;;;;;;6263685;28;20114;-70
2023/03/02 05:08:37;;;;;;;46.58;26.23;;;;;;;;;;6263045;28;20236;-71
2023/03/02 05:11:39;;;;;;;50.67;26.98;;;;;;;;;;6264323;28;20049;-70
2023/03/02 05:14:53;;;;;;;47.55;25.95;;;;;;;;;;6260858;28;20635;-69
2023/03/02 05:17:55;;;;;;;45.30;25.52;;;;;;;;;;6262933;28;20237;-70
2023/03/02 05:20:57;;;;;;;45.00;26.98;;;;;;;;;;6262640;28;20669;-69
2023/03/02 05:23:59;;;;;;;47.05;26.52;;;;;;;;;;6264548;28;20045;-70
2023/03/02 05:27:01;;;;;;;46.97;27.85;;;;;;;;;;6263503;28;20061;-70
2023/03/02 05:30:07;;;;;;;50.97;28.35;;;;;;;;;;6266703;28;20053;-70
2023/03/02 05:33:09;;;;;;;48.67;27.83;;;;;;;;;;6260816;28;20061;-67
2023/03/02 05:36:11;;;;;;;49.47;27.92;;;;;;;;;;6264187;28;20041;-70
2023/03/02 05:39:13;;;;;;;58.17;30.50;;;;;;;;;;6264702;28;20482;-70
2023/03/02 05:42:15;;;;;;;55.10;29.67;;;;;;;;;;6263262;28;20104;-70
2023/03/02 05:45:21;;;;;;;54.80;29.20;;;;;;;;;;6257652;28;20059;-69
2023/03/02 05:48:23;;;;;;;50.95;28.85;;;;;;;;;;6250594;28;20330;-69
2023/03/02 05:51:25;;;;;;;50.40;27.65;;;;;;;;;;6259749;28;20057;-70
2023/03/02 05:54:27;;;;;;;54.72;30.40;;;;;;;;;;6261954;28;20129;-71
2023/03/02 05:57:28;;;;;;;55.38;31.48;;;;;;;;;;6260550;28;20317;-70
2023/03/02 06:00:32;;;;;;;54.63;31.80;;;;;;;;;;6264246;28;20065;-70
2023/03/02 06:03:34;;;;;;;58.83;31.88;;;;;;;;;;6263358;28;20057;-70
2023/03/02 06:06:36;;;;;;;54.65;31.63;;;;;;;;;;6238845;28;20097;-69
2023/03/02 06:09:38;;;;;;;61.53;31.90;;;;;;;;;;6228676;28;20275;-69
2023/03/02 06:12:40;;;;;;;56.33;30.38;;;;;;;;;;6238189;28;20064;-70
2023/03/02 06:15:44;;;;;;;56.47;30.73;;;;;;;;;;6263845;28;20049;-69
2023/03/02 06:18:52;;;;;;;53.97;30.15;;;;;;;;;;6263727;28;20316;-71
2023/03/02 06:21:53;;;;;;;52.40;28.73;;;;;;;;;;6263774;28;20162;-70
2023/03/02 06:24:55;;;;;;;65.18;34.60;;;;;;;;;;6266027;28;20241;-71
2023/03/02 06:27:57;;;;;;;57.55;31.52;;;;;;;;;;6262655;28;20061;-70
2023/03/02 06:31:00;;;;;;;59.92;32.10;;;;;;;;;;6262315;28;20061;-70
2023/03/02 06:34:02;;;;;;;57.70;32.53;;;;;;;;;;6262147;28;20133;-69
2023/03/02 06:37:05;;;;;;;58.88;33.25;;;;;;;;;;6264542;28;20060;-71
2023/03/02 06:40:10;;;;;;;56.25;30.73;;;;;;;;;;6261683;28;20049;-70
2023/03/02 06:43:12;;;;;;;59.33;32.35;;;;;;;;;;6262845;28;20052;-70
2023/03/02 06:46:16;;;;;;;57.20;31.00;;;;;;;;;;6267711;28;20064;-70
2023/03/02 06:49:20;;;;;;;58.65;31.23;;;;;;;;;;6268138;28;20098;-70
2023/03/02 06:52:22;;;;;;;58.72;32.55;;;;;;;;;;6266920;28;20371;-69
2023/03/02 06:55:24;;;;;;;56.17;30.90;;;;;;;;;;6267049;28;20108;-68
2023/03/02 06:58:26;;;;;;;56.40;30.95;;;;;;;;;;6269855;28;20347;-71
2023/03/02 07:01:45;;;;;;;60.33;33.30;;;;;;;;;;6267559;28;20236;-69
2023/03/02 07:04:47;;;;;;;56.10;32.92;;;;;;;;;;6265157;28;20092;-70
2023/03/02 07:07:49;;;;;;;54.22;31.73;;;;;;;;;;6265618;28;20120;-70
2023/03/02 07:10:51;;;;;;;60.03;32.05;;;;;;;;;;6269891;28;20061;-70
2023/03/02 07:13:53;;;;;;;56.55;32.25;;;;;;;;;;6269452;28;20049;-70
2023/03/02 07:16:58;;;;;;;56.05;30.98;;;;;;;;;;6267179;28;20072;-70
2023/03/02 07:20:00;;;;;;;59.05;29.65;;;;;;;;;;6266468;28;20344;-71
2023/03/02 07:23:02;;;;;;;51.08;29.75;;;;;;;;;;6264347;28;20398;-70
2023/03/02 07:26:07;;;;;;;55.55;29.67;;;;;;;;;;6267711;28;20092;-70
2023/03/02 07:29:09;;;;;;;54.33;30.83;;;;;;;;;;6264549;28;20052;-70
2023/03/02 07:32:12;;;;;;;54.20;29.58;;;;;;;;;;6269186;28;20044;-70
2023/03/02 07:35:17;;;;;;;52.13;28.83;;;;;;;;;;6246447;28;20260;-70
2023/03/02 07:41:40;;;;;;;50.85;29.88;;;;;;;;;;6258022;28;20053;-70
2023/03/02 07:44:42;;;;;;;50.47;29.88;;;;;;;;;;6267303;28;20080;-70
2023/03/02 07:47:45;;;;;;;53.45;29.60;;;;;;;;;;6264723;28;20057;-70
2023/03/02 07:50:46;;;;;;;55.05;29.42;;;;;;;;;;6265394;28;20061;-69
2023/03/02 07:53:48;;;;;;;49.53;28.70;;;;;;;;;;6265814;28;20064;-70
2023/03/02 07:56:50;;;;;;;50.78;29.05;;;;;;;;;;6266381;28;20099;-70
2023/03/02 07:59:52;;;;;;;49.75;28.55;;;;;;;;;;6265902;28;20041;-71
2023/03/02 08:02:55;;;;;;;49.30;29.05;;;;;;;;;;6263630;28;20061;-70
2023/03/02 08:05:59;;;;;;;54.13;30.38;;;;;;;;;;6264940;28;20112;-70
2023/03/02 08:09:02;;;;;;;51.67;29.38;;;;;;;;;;6247404;28;20065;-70
2023/03/02 08:12:04;;;;;;;52.10;29.08;;;;;;;;;;6240634;28;20249;-70
2023/03/02 08:15:07;;;;;;;53.10;30.10;;;;;;;;;;6233429;28;20064;-70
2023/03/02 08:18:10;;;;;;;47.38;27.33;;;;;;;;;;6237966;28;20784;-70
2023/03/02 08:21:27;;;;;;;54.28;28.52;;;;;;;;;;6239963;28;20064;-71
2023/03/02 08:24:33;;;;;;;51.97;27.27;;;;;;;;;;6240028;28;20054;-70
2023/03/02 08:27:35;;;;;;;49.70;29.55;;;;;;;;;;6237206;28;20257;-68
2023/03/02 08:30:37;;;;;;;50.90;28.13;;;;;;;;;;6240029;28;20111;-70
2023/03/02 08:33:40;;;;;;;49.13;28.60;;;;;;;;;;6240660;28;20053;-70
2023/03/02 08:36:42;;;;;;;50.23;29.33;;;;;;;;;;6238762;28;20100;-70
2023/03/02 08:39:49;;;;;;;46.35;28.70;;;;;;;;;;6239704;28;20480;-70
2023/03/02 08:42:55;;;;;;;49.25;29.20;;;;;;;;;;6244937;28;20065;-70
2023/03/02 08:46:04;;;;;;;55.40;29.02;;;;;;;;;;6253458;28;20066;-70
2023/03/02 08:49:48;;;;;;;49.15;27.70;;;;;;;;;;6253047;28;20053;-70
2023/03/02 08:52:52;;;;;;;52.63;27.63;;;;;;;;;;6243428;28;20351;-69
2023/03/02 08:55:54;;;;;;;54.75;29.80;;;;;;;;;;6265289;28;20049;-70
2023/03/02 08:58:58;;;;;;;52.13;28.25;;;;;;;;;;6262971;28;20076;-70
2023/03/02 09:02:16;;;;;;;47.60;27.95;;;;;;;;;;6264444;28;20391;-70
2023/03/02 09:05:17;;;;;;;53.10;28.30;;;;;;;;;;6262859;28;20103;-70
2023/03/02 09:08:21;;;;;;;47.50;27.75;;;;;;;;;;6263001;28;20063;-70
2023/03/02 09:11:23;;;;;;;46.05;27.55;;;;;;;;;;6263369;28;20099;-68
2023/03/02 09:14:26;;;;;;;47.72;27.25;;;;;;;;;;6239612;28;20056;-70
2023/03/02 09:17:28;;;;;;;49.58;28.83;;;;;;;;;;6259552;28;20045;-69
2023/03/02 09:20:30;;;;;;;50.78;28.42;;;;;;;;;;6252452;28;20300;-70
2023/03/02 09:23:43;;;;;;;49.15;28.27;;;;;;;;;;6237619;28;20144;-70
2023/03/02 09:26:45;;;;;;;47.17;28.92;;;;;;;;;;6238946;28;20324;-70
2023/03/02 09:29:56;;;;;;;48.65;28.77;;;;;;;;;;6237404;28;20057;-69
2023/03/02 09:32:58;;;;;;;43.83;27.15;;;;;;;;;;6236955;28;20100;-70
2023/03/02 09:36:01;;;;;;;42.80;26.65;;;;;;;;;;6240796;28;20096;-69
2023/03/02 09:39:11;;;;;;;48.78;27.13;;;;;;;;;;6240550;28;20061;-70
2023/03/02 09:43:05;;;;;;;48.65;26.50;;;;;;;;;;6235498;28;20053;-70
2023/03/02 09:46:16;;;;;;;47.17;27.00;;;;;;;;;;6173053;28;20455;-70
2023/03/02 09:49:28;;;;;;;45.55;26.15;;;;;;;;;;6121921;28;20059;-70
2023/03/02 09:52:32;;;;;;;46.88;26.30;;;;;;;;;;6140149;29;20066;-69
2023/03/02 09:55:39;;;;;;;44.03;26.60;;;;;;;;;;6158312;28;20054;-70
2023/03/02 09:58:43;;;;;;;48.25;25.30;;;;;;;;;;6151379;28;20074;-69
2023/03/02 10:01:48;;;;;;;41.20;24.45;;;;;;;;;;6161496;28;20269;-68
2023/03/02 10:04:51;;;;;;;;;;;;;;;;;;6162217;28;20125;-70
2023/03/02 10:07:54;;;;;;;42.38;23.33;;;;;;;;;;6161601;28;19936;-69
2023/03/02 10:11:04;;;;;;;42.45;24.75;;;;;;;;;;6163729;28;20051;-69
2023/03/02 10:14:20;;;;;;;39.58;24.50;;;;;;;;;;6161984;28;20215;-69
2023/03/02 10:17:56;;;;;;;;;;;;;;;;;;;;;
2023/03/02 10:24:40;;;;;;;44.40;24.88;;;;;;;;;;6256307;28;20041;-70
2023/03/02 10:28:29;;;;;;;41.10;23.10;;;;;;;;;;6266075;28;20076;-70
2023/03/02 10:31:48;;;;;;;37.13;22.95;;;;;;;;;;6263115;28;20113;-70
2023/03/02 10:34:54;;;;;;;38.22;22.67;;;;;;;;;;6243264;28;20045;-70
2023/03/02 10:38:11;;;;;;;38.58;23.55;;;;;;;;;;6240381;28;20046;-71
2023/03/02 10:41:48;;;;;;;37.03;23.08;;;;;;;;;;6244239;28;20054;-70
2023/03/02 10:44:58;;;;;;;35.35;22.77;;;;;;;;;;6243820;28;20219;-70
2023/03/02 10:48:46;;;;;;;37.78;23.10;;;;;;;;;;6243257;28;20050;-70
2023/03/02 10:51:56;;;;;;;40.92;23.42;;;;;;;;;;6268338;28;20065;-69
2023/03/02 10:55:05;;;;;;;37.60;22.75;;;;;;;;;;6268197;28;20053;-69
2023/03/02 10:58:21;;;;;;;35.55;22.02;;;;;;;;;;6249929;28;20044;-69
2023/03/02 11:01:24;;;;;;;34.17;21.15;;;;;;;;;;6257002;28;20379;-69
2023/03/02 11:04:26;;;;;;;31.13;19.65;;;;;;;;;;6267219;28;20268;-70
2023/03/02 11:07:38;;;;;;;27.30;17.88;;;;;;;;;;6266445;28;20109;-70
2023/03/02 11:10:53;;;;;;;27.55;17.30;;;;;;;;;;6266773;28;20116;-70
2023/03/02 11:13:56;;;;;;;25.67;16.38;;;;;;;;;;6267090;28;20080;-70
2023/03/02 11:17:04;;;;;;;23.58;14.55;;;;;;;;;;6266953;28;20049;-70
2023/03/02 11:20:15;;;;;;;22.35;14.32;;;;;;;;;;6269882;28;20128;-71
2023/03/02 11:23:35;;;;;;;27.70;14.85;;;;;;;;;;6262800;28;20053;-70
2023/03/02 11:26:39;;;;;;;19.25;12.48;;;;;;;;;;6243979;28;20049;-70
2023/03/02 11:29:44;;;;;;;21.67;13.50;;;;;;;;;;6245743;28;20056;-70
2023/03/02 11:32:54;;;;;;;22.15;14.73;;;;;;;;;;6241951;28;20181;-69
2023/03/02 11:35:57;;;;;;;28.25;14.13;;;;;;;;;;6240674;28;20053;-69
2023/03/02 11:38:58;;;;;;;22.50;15.17;;;;;;;;;;6242319;28;20064;-71
2023/03/02 11:42:00;;;;;;;21.08;14.00;;;;;;;;;;6240262;28;20061;-70
2023/03/02 11:45:16;;;;;;;21.33;13.82;;;;;;;;;;6240659;28;20046;-70
2023/03/02 11:48:27;;;;;;;18.42;14.13;;;;;;;;;;6245183;28;20049;-71
2023/03/02 11:51:36;;;;;;;18.92;13.23;;;;;;;;;;6250484;28;20057;-70
2023/03/02 11:54:43;;;;;;;17.15;12.80;;;;;;;;;;6266092;28;20373;-70
2023/03/02 11:57:50;;;;;;;20.17;13.90;;;;;;;;;;6266033;28;20088;-70
2023/03/02 12:00:52;;;;;;;20.63;15.35;;;;;;;;;;6243164;28;20056;-70
2023/03/02 12:04:07;;;;;;;19.50;14.65;;;;;;;;;;6263930;28;20437;-69
2023/03/02 12:07:27;;;;;;;23.95;16.25;;;;;;;;;;6264807;28;20045;-71
2023/03/02 12:10:34;;;;;;;19.15;13.65;;;;;;;;;;6265855;28;20068;-71
2023/03/02 12:13:37;;;;;;;19.70;13.23;;;;;;;;;;6242121;28;20106;-70
2023/03/02 12:16:40;;;;;;;21.20;13.10;;;;;;;;;;6266345;28;20061;-71
2023/03/02 12:19:44;;;;;;;19.42;12.90;;;;;;;;;;6264824;28;20074;-71
2023/03/02 12:22:48;;;;;;;17.83;13.27;;;;;;;;;;6268637;28;20358;-71
2023/03/02 12:26:06;;;;;;;20.50;13.48;;;;;;;;;;6256482;28;20120;-70
2023/03/02 12:29:24;;;;;;;19.33;12.00;;;;;;;;;;6264728;28;20055;-70
2023/03/02 12:32:30;;;;;;;16.60;10.98;;;;;;;;;;6266544;28;20114;-70
2023/03/02 12:35:41;;;;;;;16.25;12.13;;;;;;;;;;6265965;28;20045;-71
2023/03/02 12:38:46;;;;;;;18.80;12.98;;;;;;;;;;6264648;28;20345;-70
2023/03/02 12:42:17;;;;;;;16.88;12.40;;;;;;;;;;6265029;28;20053;-71
2023/03/02 12:45:35;;;;;;;17.98;11.48;;;;;;;;;;6265548;28;20061;-70
2023/03/02 12:48:42;;;;;;;19.95;11.55;;;;;;;;;;6265419;28;20052;-70
2023/03/02 12:51:52;;;;;;;16.70;11.43;;;;;;;;;;6266302;28;20124;-70
2023/03/02 12:55:05;;;;;;;17.08;11.15;;;;;;;;;;6263645;28;20064;-72
2023/03/02 12:58:28;;;;;;;16.00;11.00;;;;;;;;;;6265164;28;20053;-70
2023/03/02 13:01:32;;;;;;;59.55;38.30;;;;;;;;;;6264253;28;20382;-72
2023/03/02 13:04:37;;;;;;;25.17;16.50;;;;;;;;;;6262487;28;20329;-73
2023/03/02 13:07:43;;;;;;;17.75;12.48;;;;;;;;;;6262119;28;20048;-71
2023/03/02 13:10:51;;;;;;;17.25;12.38;;;;;;;;;;6265210;28;20053;-72
2023/03/02 13:13:54;;;;;;;19.52;11.40;;;;;;;;;;6259257;28;20361;-71
2023/03/02 13:16:59;;;;;;;15.48;12.32;;;;;;;;;;6265224;28;20057;-71
2023/03/02 13:20:02;;;;;;;14.63;11.13;;;;;;;;;;6261533;28;20049;-70
2023/03/02 13:23:05;;;;;;;18.77;12.70;;;;;;;;;;6264897;28;20053;-71
2023/03/02 13:26:07;;;;;;;17.67;12.40;;;;;;;;;;6263630;28;20486;-72
2023/03/02 13:29:19;;;;;;;16.65;11.52;;;;;;;;;;6261392;28;20218;-72
2023/03/02 13:32:25;;;;;;;20.40;12.80;;;;;;;;;;6263046;28;20120;-71
2023/03/02 13:35:29;;;;;;;18.52;12.85;;;;;;;;;;6261654;28;20218;-72
2023/03/02 13:38:38;;;;;;;;;;;;;;;;;;6265339;28;20091;-72
2023/03/02 13:41:40;;;;;;;18.35;12.43;;;;;;;;;;6265147;28;19963;-72
2023/03/02 13:44:45;;;;;;;17.02;12.35;;;;;;;;;;6263170;28;20065;-71
2023/03/02 13:47:49;;;;;;;16.67;11.77;;;;;;;;;;6245373;28;20050;-72
2023/03/02 13:50:54;;;;;;;17.02;12.73;;;;;;;;;;6255495;28;20061;-71
2023/03/02 13:53:59;;;;;;;22.60;15.20;;;;;;;;;;6264908;28;20341;-71
2023/03/02 13:57:03;;;;;;;26.20;16.90;;;;;;;;;;6237131;28;20104;-68
2023/03/02 14:00:17;;;;;;;23.02;16.65;;;;;;;;;;6254893;28;20064;-71
2023/03/02 14:03:23;;;;;;;24.45;16.30;;;;;;;;;;6262922;28;20249;-68
2023/03/02 14:06:40;;;;;;;25.95;16.55;;;;;;;;;;6262550;28;20049;-70
2023/03/02 14:09:43;;;;;;;23.42;16.50;;;;;;;;;;6257847;28;20049;-69
2023/03/02 14:12:53;;;;;;;25.37;16.63;;;;;;;;;;6262944;28;20059;-70
2023/03/02 14:15:55;;;;;;;25.02;15.57;;;;;;;;;;6240240;28;20456;-70
2023/03/02 14:18:57;;;;;;;25.40;15.82;;;;;;;;;;6241336;28;20329;-70
2023/03/02 14:21:59;;;;;;;25.20;15.32;;;;;;;;;;6237635;28;20075;-71
2023/03/02 14:25:02;;;;;;;23.50;15.32;;;;;;;;;;6239638;28;20079;-71
2023/03/02 14:28:15;;;;;;;23.07;15.07;;;;;;;;;;6241098;28;20692;-71
2023/03/02 14:31:18;;;;;;;22.35;14.57;;;;;;;;;;6234071;28;20499;-69
2023/03/02 14:34:19;;;;;;;22.52;15.13;;;;;;;;;;6249425;28;20247;-69
2023/03/02 14:37:24;;;;;;;21.10;13.95;;;;;;;;;;6262711;28;20383;-69
2023/03/02 14:40:28;;;;;;;21.15;14.82;;;;;;;;;;6262714;28;20341;-69
2023/03/02 14:43:30;;;;;;;21.27;13.63;;;;;;;;;;6262934;28;20226;-69
2023/03/02 14:46:32;;;;;;;22.25;14.45;;;;;;;;;;6262593;28;20096;-68
2023/03/02 14:49:34;;;;;;;28.98;15.93;;;;;;;;;;6261987;28;20095;-69
2023/03/02 14:52:38;;;;;;;23.38;14.75;;;;;;;;;;6260037;28;20045;-67
2023/03/02 14:55:42;;;;;;;28.10;16.30;;;;;;;;;;6264690;28;20041;-71
2023/03/02 14:58:46;;;;;;;23.17;15.40;;;;;;;;;;6264651;28;20050;-70
2023/03/02 15:01:47;;;;;;;;;;;;;;;;;;6264203;28;20089;-69
2023/03/02 15:04:53;;;;;;;29.42;16.63;;;;;;;;;;6264279;28;19982;-70
2023/03/02 15:07:56;;;;;;;36.83;20.90;;;;;;;;;;6267015;28;20080;-70
2023/03/02 15:10:59;;;;;;;26.00;17.27;;;;;;;;;;6267256;28;20049;-69
2023/03/02 15:14:01;;;;;;;41.40;24.20;;;;;;;;;;6258672;28;20044;-70
2023/03/02 15:17:03;;;;;;;23.27;16.02;;;;;;;;;;6265843;28;20269;-69
2023/03/02 15:20:07;;;;;;;24.65;14.98;;;;;;;;;;6271286;28;20119;-69
2023/03/02 15:23:08;;;;;;;20.88;13.68;;;;;;;;;;6267418;28;20044;-70
2023/03/02 15:26:12;;;;;;;23.02;15.15;;;;;;;;;;6265201;28;20094;-69
2023/03/02 15:29:14;;;;;;;22.27;14.77;;;;;;;;;;6266427;28;20352;-69
2023/03/02 15:32:16;;;;;;;20.30;14.10;;;;;;;;;;6268807;28;20233;-69
2023/03/02 15:35:18;;;;;;;20.13;14.02;;;;;;;;;;6265399;28;20045;-71
2023/03/02 15:38:20;;;;;;;20.98;14.73;;;;;;;;;;6266910;28;20119;-68
2023/03/02 15:41:24;;;;;;;20.10;13.85;;;;;;;;;;6264219;28;20056;-71
2023/03/02 15:44:28;;;;;;;20.25;14.93;;;;;;;;;;6265633;28;20088;-71
2023/03/02 15:47:32;;;;;;;21.80;15.15;;;;;;;;;;6267711;28;20049;-70
2023/03/02 15:50:34;;;;;;;19.45;14.50;;;;;;;;;;6267556;28;20103;-70
2023/03/02 15:53:37;;;;;;;23.63;14.90;;;;;;;;;;6268460;28;20056;-70
2023/03/02 15:56:40;;;;;;;22.08;14.95;;;;;;;;;;6265794;28;20256;-70
2023/03/02 15:59:43;;;;;;;20.27;13.63;;;;;;;;;;6267719;28;20147;-69
2023/03/02 16:02:45;;;;;;;21.65;14.70;;;;;;;;;;6264097;28;20302;-70
2023/03/02 16:05:46;;;;;;;21.45;14.32;;;;;;;;;;6262611;28;20053;-70
2023/03/02 16:08:48;;;;;;;21.25;14.13;;;;;;;;;;6266443;28;20352;-70
2023/03/02 16:11:52;;;;;;;21.98;15.00;;;;;;;;;;6263844;28;20052;-71
2023/03/02 16:14:53;;;;;;;20.75;14.05;;;;;;;;;;6263036;28;20059;-71
2023/03/02 16:17:55;;;;;;;22.75;15.38;;;;;;;;;;6268753;28;20287;-69
2023/03/02 16:20:57;;;;;;;24.35;15.13;;;;;;;;;;6272025;28;20108;-69
2023/03/02 16:24:02;;;;;;;22.08;14.93;;;;;;;;;;6249657;28;20064;-69
2023/03/02 16:27:05;;;;;;;21.98;14.05;;;;;;;;;;6267799;28;20053;-69
2023/03/02 16:30:09;;;;;;;27.25;15.18;;;;;;;;;;6247184;28;20345;-69
2023/03/02 16:33:13;;;;;;;22.57;15.03;;;;;;;;;;6244305;28;20057;-69
2023/03/02 16:36:15;;;;;;;25.27;16.15;;;;;;;;;;6245461;28;20551;-70
2023/03/02 16:39:17;;;;;;;22.65;15.30;;;;;;;;;;6246470;28;20104;-69
2023/03/02 16:42:20;;;;;;;24.95;15.95;;;;;;;;;;6255827;28;20081;-70
2023/03/02 16:45:22;;;;;;;24.40;15.80;;;;;;;;;;6266729;28;20293;-70
2023/03/02 16:48:24;;;;;;;23.02;15.00;;;;;;;;;;6272490;28;20186;-68
2023/03/02 16:51:26;;;;;;;24.98;15.38;;;;;;;;;;6269638;28;20041;-70
2023/03/02 16:54:27;;;;;;;20.35;13.98;;;;;;;;;;6268570;28;20669;-71
2023/03/02 16:57:31;;;;;;;20.75;14.27;;;;;;;;;;6270365;28;20056;-70
2023/03/02 17:00:32;;;;;;;24.63;15.45;;;;;;;;;;6270146;28;20120;-70
2023/03/02 17:03:35;;;;;;;24.70;15.50;;;;;;;;;;6245008;28;20057;-70
2023/03/02 17:06:36;;;;;;;22.83;14.52;;;;;;;;;;6243261;28;20129;-71
2023/03/02 17:09:41;;;;;;;23.98;15.25;;;;;;;;;;6243897;28;20049;-71
2023/03/02 17:12:43;;;;;;;;;;;;;;;;;;6247317;28;20064;-71
2023/03/02 17:15:45;;;;;;;26.80;15.45;;;;;;;;;;6243496;28;19924;-71
2023/03/02 17:18:47;;;;;;;25.25;15.75;;;;;;;;;;6244174;28;20054;-71
2023/03/02 17:21:49;;;;;;;23.25;15.05;;;;;;;;;;6243281;28;20125;-71
2023/03/02 17:24:51;;;;;;;22.52;15.30;;;;;;;;;;6245231;28;20135;-71
2023/03/02 17:27:54;;;;;;;26.25;15.93;;;;;;;;;;6244343;28;20117;-70
2023/03/02 17:30:56;;;;;;;24.80;16.10;;;;;;;;;;6244841;28;20108;-70
2023/03/02 17:33:58;;;;;;;23.27;15.93;;;;;;;;;;6243527;28;20103;-70
2023/03/02 17:37:00;;;;;;;27.23;16.55;;;;;;;;;;6247854;28;20069;-71
2023/03/02 17:40:02;;;;;;;27.30;15.55;;;;;;;;;;6245322;28;20060;-70
2023/03/02 17:43:07;;;;;;;25.02;15.85;;;;;;;;;;6246627;28;20061;-70
2023/03/02 17:46:14;;;;;;;23.42;15.95;;;;;;;;;;6255106;28;20049;-70
2023/03/02 17:49:16;;;;;;;27.00;16.35;;;;;;;;;;6266171;28;20053;-70
2023/03/02 17:52:18;;;;;;;25.17;15.52;;;;;;;;;;6269388;28;20045;-70
2023/03/02 17:55:20;;;;;;;27.77;16.55;;;;;;;;;;6269311;28;20086;-70
2023/03/02 17:58:23;;;;;;;24.95;15.93;;;;;;;;;;6266853;28;20056;-70
2023/03/02 18:01:26;;;;;;;28.75;16.17;;;;;;;;;;6265118;28;20113;-71
2023/03/02 18:04:27;;;;;;;27.13;16.38;;;;;;;;;;6242035;28;20115;-70
2023/03/02 18:07:29;;;;;;;29.35;16.42;;;;;;;;;;6241944;28;20072;-71